createdAt,value
2019-05-11T00:02:22.086Z,8.10
2019-05-11T00:04:50.573Z,8.00
2019-05-11T00:07:20.732Z,7.90
2019-05-11T00:09:58.239Z,7.80
2019-05-11T00:12:19.352Z,7.80
2019-05-11T00:14:48.896Z,7.70
2019-05-11T00:17:17.493Z,7.70
2019-05-11T00:19:45.924Z,7.60
2019-05-11T00:22:14.958Z,7.50
2019-05-11T00:24:43.382Z,7.40
2019-05-11T00:27:11.821Z,7.60
2019-05-11T00:29:40.284Z,7.50
2019-05-11T00:32:08.966Z,7.50
2019-05-11T00:34:37.425Z,7.60
2019-05-11T00:37:05.871Z,7.50
2019-05-11T00:39:34.288Z,7.40
2019-05-11T00:42:02.769Z,7.40
2019-05-11T00:44:31.193Z,7.30
2019-05-11T00:46:59.655Z,7.20
2019-05-11T00:49:28.082Z,7.20
2019-05-11T00:51:56.517Z,7.20
2019-05-11T00:54:24.947Z,7.30
2019-05-11T00:56:53.386Z,7.20
2019-05-11T00:59:22.245Z,7.10
2019-05-11T01:01:50.746Z,7.10
2019-05-11T01:04:19.214Z,7.10
2019-05-11T01:06:47.696Z,7.20
2019-05-11T01:09:16.134Z,7.20
2019-05-11T01:11:44.633Z,7.10
2019-05-11T01:14:13.070Z,7.10
2019-05-11T01:16:41.498Z,7.10
2019-05-11T01:19:09.943Z,7.10
2019-05-11T01:21:38.378Z,7.00
2019-05-11T01:24:06.833Z,7.00
2019-05-11T01:26:35.323Z,7.00
2019-05-11T01:29:20.305Z,7.00
2019-05-11T01:31:48.730Z,7.00
2019-05-11T01:34:17.187Z,7.00
2019-05-11T01:36:45.669Z,7.00
2019-05-11T01:39:14.125Z,7.00
2019-05-11T01:41:42.637Z,7.00
2019-05-11T01:44:11.093Z,7.00
2019-05-11T01:46:39.514Z,7.00
2019-05-11T01:49:07.972Z,7.00
2019-05-11T01:51:36.402Z,7.00
2019-05-11T01:54:04.864Z,7.10
2019-05-11T01:56:33.366Z,7.30
2019-05-11T01:59:01.804Z,7.10
2019-05-11T02:01:30.227Z,7.00
2019-05-11T02:03:58.681Z,7.00
2019-05-11T02:06:27.097Z,6.80
2019-05-11T02:08:55.538Z,6.40
2019-05-11T02:11:24.002Z,6.30
2019-05-11T02:13:52.435Z,6.30
2019-05-11T02:16:20.860Z,6.40
2019-05-11T02:18:49.288Z,6.50
2019-05-11T02:21:17.738Z,6.50
2019-05-11T02:23:46.166Z,6.60
2019-05-11T02:26:14.616Z,6.60
2019-05-11T02:28:43.041Z,6.60
2019-05-11T02:31:11.506Z,6.70
2019-05-11T02:33:39.983Z,6.70
2019-05-11T02:36:08.423Z,6.70
2019-05-11T02:38:36.852Z,6.70
2019-05-11T02:41:05.509Z,6.70
2019-05-11T02:43:33.998Z,6.80
2019-05-11T02:46:02.441Z,6.80
2019-05-11T02:48:30.941Z,6.80
2019-05-11T02:51:00.358Z,6.80
2019-05-11T02:53:30.757Z,6.80
2019-05-11T02:56:01.325Z,6.90
2019-05-11T02:58:29.759Z,6.90
2019-05-11T03:00:59.853Z,6.90
2019-05-11T03:03:28.270Z,6.80
2019-05-11T03:05:56.718Z,6.70
2019-05-11T03:08:25.474Z,6.70
2019-05-11T03:10:53.910Z,6.80
2019-05-11T03:13:22.332Z,6.90
2019-05-11T03:15:51.423Z,6.90
2019-05-11T03:18:21.466Z,6.90
2019-05-11T03:20:49.908Z,6.60
2019-05-11T03:23:18.368Z,6.70
2019-05-11T03:25:46.943Z,6.80
2019-05-11T03:28:15.441Z,6.80
2019-05-11T03:30:43.873Z,6.90
2019-05-11T03:33:12.314Z,6.90
2019-05-11T03:35:40.902Z,6.80
2019-05-11T03:38:09.406Z,6.90
2019-05-11T03:40:38.017Z,6.80
2019-05-11T03:43:06.465Z,6.80
2019-05-11T03:45:34.891Z,6.80
2019-05-11T03:48:03.357Z,6.80
2019-05-11T03:50:31.777Z,6.70
2019-05-11T03:53:01.602Z,6.80
2019-05-11T03:55:30.385Z,6.80
2019-05-11T03:57:58.829Z,6.70
2019-05-11T04:00:27.250Z,6.80
2019-05-11T04:02:55.677Z,6.70
2019-05-11T04:05:24.121Z,6.80
2019-05-11T04:07:52.625Z,6.80
2019-05-11T04:10:24.849Z,6.80
2019-05-11T04:12:51.337Z,6.80
2019-05-11T04:15:19.767Z,6.80
2019-05-11T04:17:48.216Z,6.90
2019-05-11T04:20:17.022Z,6.90
2019-05-11T04:22:45.627Z,6.80
2019-05-11T04:25:14.586Z,6.70
2019-05-11T04:27:42.992Z,6.80
2019-05-11T04:30:30.834Z,6.80
2019-05-11T04:32:59.279Z,7.00
2019-05-11T04:35:27.709Z,7.00
2019-05-11T04:37:56.134Z,6.90
2019-05-11T04:40:24.582Z,7.00
2019-05-11T04:42:55.635Z,7.00
2019-05-11T04:45:23.186Z,6.90
2019-05-11T04:47:51.712Z,7.20
2019-05-11T04:50:20.774Z,7.50
2019-05-11T04:52:50.001Z,7.40
2019-05-11T04:55:18.437Z,7.50
2019-05-11T04:57:46.851Z,7.40
2019-05-11T05:00:16.162Z,7.60
2019-05-11T05:02:44.854Z,7.60
2019-05-11T05:05:13.999Z,7.50
2019-05-11T05:07:48.654Z,7.40
2019-05-11T05:10:14.140Z,7.40
2019-05-11T05:12:50.803Z,7.50
2019-05-11T05:15:13.284Z,7.50
2019-05-11T05:17:41.715Z,7.30
2019-05-11T05:20:10.144Z,7.20
2019-05-11T05:22:38.591Z,7.30
2019-05-11T05:25:08.871Z,7.20
2019-05-11T05:27:37.302Z,7.30
2019-05-11T05:30:32.230Z,7.60
2019-05-11T05:32:48.461Z,7.50
2019-05-11T05:35:16.907Z,7.40
2019-05-11T05:37:45.354Z,7.40
2019-05-11T05:40:14.205Z,7.40
2019-05-11T05:42:42.693Z,7.50
2019-05-11T05:45:11.204Z,7.40
2019-05-11T05:47:39.627Z,7.50
2019-05-11T05:50:08.535Z,7.70
2019-05-11T05:52:37.095Z,7.80
2019-05-11T05:55:07.974Z,7.70
2019-05-11T05:57:36.450Z,7.70
2019-05-11T06:00:06.130Z,7.70
2019-05-11T06:02:34.641Z,7.80
2019-05-11T06:05:03.488Z,7.90
2019-05-11T06:07:31.917Z,8.10
2019-05-11T06:10:00.454Z,8.20
2019-05-11T06:12:28.924Z,8.30
2019-05-11T06:14:57.344Z,8.30
2019-05-11T06:17:25.778Z,8.30
2019-05-11T06:19:54.471Z,8.30
2019-05-11T06:22:22.962Z,8.40
2019-05-11T06:24:51.409Z,8.50
2019-05-11T06:27:19.845Z,8.70
2019-05-11T06:29:53.510Z,8.70
2019-05-11T06:32:22.180Z,8.70
2019-05-11T06:34:50.623Z,8.70
2019-05-11T06:37:19.282Z,8.80
2019-05-11T06:39:47.773Z,8.80
2019-05-11T06:42:16.214Z,8.90
2019-05-11T06:44:44.634Z,9.10
2019-05-11T06:47:13.066Z,9.20
2019-05-11T06:49:41.481Z,9.10
2019-05-11T06:52:09.925Z,9.00
2019-05-11T06:54:38.355Z,9.00
2019-05-11T06:57:06.790Z,9.00
2019-05-11T06:59:35.229Z,8.80
2019-05-11T07:02:03.701Z,8.80
2019-05-11T07:04:32.131Z,8.80
2019-05-11T07:07:01.842Z,8.90
2019-05-11T07:09:30.269Z,8.50
2019-05-11T07:11:59.299Z,8.70
2019-05-11T07:14:27.864Z,9.00
2019-05-11T07:17:15.642Z,9.20
2019-05-11T07:19:47.364Z,9.10
2019-05-11T07:22:14.353Z,9.30
2019-05-11T07:24:42.817Z,9.00
2019-05-11T07:27:11.308Z,9.10
2019-05-11T07:29:39.756Z,9.00
2019-05-11T07:32:19.941Z,9.10
2019-05-11T07:34:38.505Z,9.20
2019-05-11T07:37:08.224Z,9.40
2019-05-11T07:39:38.330Z,9.40
2019-05-11T07:42:07.739Z,9.30
2019-05-11T07:44:40.984Z,9.50
2019-05-11T07:47:07.955Z,9.50
2019-05-11T07:49:38.204Z,9.70
2019-05-11T07:52:07.786Z,9.90
2019-05-11T07:54:38.511Z,9.70
2019-05-11T07:57:07.887Z,9.80
2019-05-11T07:59:38.197Z,9.90
2019-05-11T08:02:08.817Z,10.00
2019-05-11T08:04:37.889Z,10.00
2019-05-11T08:07:07.683Z,9.90
2019-05-11T08:09:38.061Z,9.90
2019-05-11T08:12:08.988Z,10.20
2019-05-11T08:14:55.996Z,10.50
2019-05-11T08:17:08.630Z,10.30
2019-05-11T08:19:38.406Z,10.40
2019-05-11T08:22:08.615Z,10.60
2019-05-11T08:24:37.891Z,10.50
2019-05-11T08:27:08.447Z,10.30
2019-05-11T08:29:38.448Z,10.40
2019-05-11T08:32:08.188Z,10.70
2019-05-11T08:34:36.875Z,10.90
2019-05-11T08:37:05.560Z,10.70
2019-05-11T08:39:34.013Z,10.50
2019-05-11T08:42:03.382Z,10.70
2019-05-11T08:44:31.968Z,10.60
2019-05-11T08:47:00.409Z,11.00
2019-05-11T08:49:28.943Z,11.00
2019-05-11T08:51:58.115Z,11.40
2019-05-11T08:54:28.855Z,11.30
2019-05-11T08:56:58.715Z,11.30
2019-05-11T08:59:28.001Z,11.10
2019-05-11T09:01:58.811Z,11.20
2019-05-11T09:04:28.782Z,11.30
2019-05-11T09:06:58.634Z,11.40
2019-05-11T09:09:28.695Z,11.20
2019-05-11T09:11:58.879Z,11.30
2019-05-11T09:14:28.393Z,11.20
2019-05-11T09:16:57.795Z,10.80
2019-05-11T09:19:28.445Z,11.00
2019-05-11T09:21:58.867Z,11.10
2019-05-11T09:24:28.204Z,11.20
2019-05-11T09:26:58.638Z,11.50
2019-05-11T09:29:28.134Z,11.50
2019-05-11T09:32:02.704Z,11.80
2019-05-11T09:34:31.130Z,11.90
2019-05-11T09:36:59.575Z,11.50
2019-05-11T09:39:28.209Z,11.60
2019-05-11T09:41:58.475Z,11.50
2019-05-11T09:44:29.004Z,11.50
2019-05-11T09:47:02.299Z,11.70
2019-05-11T09:49:43.495Z,11.60
2019-05-11T09:51:58.996Z,11.50
2019-05-11T09:54:28.989Z,11.90
2019-05-11T09:56:58.289Z,12.20
2019-05-11T09:59:28.193Z,12.10
2019-05-11T10:01:58.954Z,12.00
2019-05-11T10:04:28.875Z,12.10
2019-05-11T10:06:58.519Z,12.00
2019-05-11T10:09:28.016Z,12.30
2019-05-11T10:11:58.493Z,12.30
2019-05-11T10:14:28.828Z,12.40
2019-05-11T10:16:58.381Z,12.50
2019-05-11T10:19:28.395Z,12.60
2019-05-11T10:21:58.019Z,12.60
2019-05-11T10:24:28.385Z,12.60
2019-05-11T10:26:57.836Z,12.40
2019-05-11T10:29:28.892Z,12.50
2019-05-11T10:31:58.918Z,12.60
2019-05-11T10:34:28.761Z,12.60
2019-05-11T10:36:58.086Z,12.50
2019-05-11T10:39:27.970Z,12.40
2019-05-11T10:41:58.383Z,12.40
2019-05-11T10:44:28.088Z,12.50
2019-05-11T10:46:58.873Z,12.60
2019-05-11T10:49:28.865Z,12.50
2019-05-11T10:51:58.695Z,12.60
2019-05-11T10:54:28.762Z,12.70
2019-05-11T10:56:57.986Z,12.90
2019-05-11T10:59:28.326Z,13.00
2019-05-11T11:01:58.812Z,12.90
2019-05-11T11:04:28.842Z,13.10
2019-05-11T11:06:59.288Z,12.90
2019-05-11T11:09:28.219Z,13.00
2019-05-11T11:11:57.902Z,13.10
2019-05-11T11:14:28.628Z,13.20
2019-05-11T11:16:58.348Z,13.20
2019-05-11T11:19:29.012Z,13.20
2019-05-11T11:22:06.576Z,13.00
2019-05-11T11:24:28.670Z,13.10
2019-05-11T11:26:57.755Z,13.30
2019-05-11T11:29:28.707Z,13.50
2019-05-11T11:31:58.616Z,13.40
2019-05-11T11:34:28.046Z,13.60
2019-05-11T11:36:58.028Z,13.50
2019-05-11T11:39:28.343Z,13.50
2019-05-11T11:41:58.596Z,13.50
2019-05-11T11:44:28.597Z,13.30
2019-05-11T11:46:59.121Z,13.30
2019-05-11T11:49:28.319Z,13.40
2019-05-11T11:51:57.808Z,13.50
2019-05-11T11:54:28.805Z,13.20
2019-05-11T11:56:58.988Z,13.40
2019-05-11T11:59:28.695Z,13.70
2019-05-11T12:01:58.130Z,13.80
2019-05-11T12:04:28.247Z,13.60
2019-05-11T12:06:58.671Z,13.60
2019-05-11T12:09:28.731Z,13.60
2019-05-11T12:11:58.277Z,13.80
2019-05-11T12:14:28.332Z,13.80
2019-05-11T12:17:07.083Z,13.70
2019-05-11T12:19:28.022Z,13.90
2019-05-11T12:21:58.091Z,14.00
2019-05-11T12:24:28.636Z,14.00
2019-05-11T12:26:58.710Z,13.90
2019-05-11T12:29:28.378Z,13.90
2019-05-11T12:31:58.852Z,14.10
2019-05-11T12:34:28.301Z,14.10
2019-05-11T12:36:58.114Z,14.00
2019-05-11T12:39:28.315Z,14.00
2019-05-11T12:41:58.195Z,13.70
2019-05-11T12:44:28.459Z,13.80
2019-05-11T12:46:58.326Z,14.00
2019-05-11T12:49:28.952Z,14.10
2019-05-11T12:51:58.117Z,14.20
2019-05-11T12:54:28.063Z,13.90
2019-05-11T12:56:58.055Z,14.10
2019-05-11T12:59:27.950Z,14.20
2019-05-11T13:01:58.789Z,14.40
2019-05-11T13:04:28.196Z,14.20
2019-05-11T13:06:58.153Z,14.40
2019-05-11T13:09:28.800Z,14.30
2019-05-11T13:11:58.804Z,14.40
2019-05-11T13:14:27.839Z,14.60
2019-05-11T13:16:58.731Z,14.70
2019-05-11T13:19:28.224Z,14.30
2019-05-11T13:21:58.890Z,14.00
2019-05-11T13:24:28.186Z,14.20
2019-05-11T13:26:59.584Z,14.50
2019-05-11T13:29:28.699Z,14.60
2019-05-11T13:31:59.130Z,14.90
2019-05-11T13:34:31.225Z,15.10
2019-05-11T13:36:58.053Z,15.30
2019-05-11T13:39:28.422Z,14.90
2019-05-11T13:41:57.939Z,15.20
2019-05-11T13:44:28.016Z,15.10
2019-05-11T13:46:58.642Z,15.30
2019-05-11T13:49:28.292Z,15.70
2019-05-11T13:51:58.544Z,15.80
2019-05-11T13:54:29.637Z,15.50
2019-05-11T13:56:57.739Z,15.20
2019-05-11T13:59:29.249Z,14.90
2019-05-11T14:01:58.419Z,15.10
2019-05-11T14:04:28.091Z,15.10
2019-05-11T14:06:58.553Z,15.20
2019-05-11T14:09:28.899Z,15.10
2019-05-11T14:11:58.352Z,15.10
2019-05-11T14:14:28.724Z,15.30
2019-05-11T14:16:58.838Z,15.30
2019-05-11T14:19:29.065Z,15.90
2019-05-11T14:21:58.282Z,16.30
2019-05-11T14:24:28.831Z,16.30
2019-05-11T14:26:58.015Z,16.60
2019-05-11T14:29:28.446Z,16.80
2019-05-11T14:31:58.055Z,16.80
2019-05-11T14:34:28.398Z,17.00
2019-05-11T14:36:58.174Z,16.60
2019-05-11T14:39:27.979Z,16.40
2019-05-11T14:41:58.526Z,15.80
2019-05-11T14:44:28.568Z,16.20
2019-05-11T14:46:59.182Z,16.50
2019-05-11T14:49:27.721Z,17.40
2019-05-11T14:51:57.704Z,17.40
2019-05-11T14:54:28.636Z,17.20
2019-05-11T14:56:58.607Z,17.00
2019-05-11T14:59:28.590Z,17.80
2019-05-11T15:01:58.331Z,18.20
2019-05-11T15:04:28.674Z,18.20
2019-05-11T15:06:58.560Z,18.40
2019-05-11T15:09:28.532Z,18.20
2019-05-11T15:11:58.677Z,17.80
2019-05-11T15:14:28.882Z,17.50
2019-05-11T15:16:57.691Z,17.70
2019-05-11T15:19:27.878Z,18.10
2019-05-11T15:21:58.163Z,18.50
2019-05-11T15:24:28.826Z,18.30
2019-05-11T15:26:57.569Z,18.20
2019-05-11T15:29:28.559Z,18.20
2019-05-11T15:31:57.899Z,17.60
2019-05-11T15:34:28.672Z,17.90
2019-05-11T15:36:58.285Z,17.00
2019-05-11T15:39:28.681Z,16.80
2019-05-11T15:42:09.187Z,17.60
2019-05-11T15:44:28.622Z,18.40
2019-05-11T15:46:59.454Z,18.20
2019-05-11T15:49:28.320Z,18.10
2019-05-11T15:51:58.032Z,18.30
2019-05-11T15:54:28.758Z,18.20
2019-05-11T15:56:59.606Z,18.70
2019-05-11T15:59:27.907Z,18.90
2019-05-11T16:01:58.169Z,19.10
2019-05-11T16:04:28.148Z,19.40
2019-05-11T16:06:57.494Z,19.80
2019-05-11T16:09:29.097Z,19.70
2019-05-11T16:11:57.741Z,19.50
2019-05-11T16:14:28.265Z,20.10
2019-05-11T16:16:58.318Z,21.30
2019-05-11T16:19:28.102Z,20.90
2019-05-11T16:21:57.077Z,21.60
2019-05-11T16:24:25.576Z,22.40
2019-05-11T16:26:54.063Z,21.10
2019-05-11T16:29:22.597Z,21.30
2019-05-11T16:31:51.273Z,21.00
2019-05-11T16:34:19.729Z,21.70
2019-05-11T16:36:48.255Z,21.90
2019-05-11T16:39:18.659Z,22.10
2019-05-11T16:41:48.675Z,23.00
2019-05-11T16:44:18.463Z,20.70
2019-05-11T16:46:50.457Z,20.50
2019-05-11T16:49:26.167Z,20.10
2019-05-11T16:51:47.503Z,18.80
2019-05-11T16:54:16.080Z,17.90
2019-05-11T16:56:44.581Z,18.10
2019-05-11T16:59:13.020Z,17.70
2019-05-11T17:01:41.541Z,16.70
2019-05-11T17:04:09.972Z,16.30
2019-05-11T17:06:38.830Z,16.10
2019-05-11T17:09:08.830Z,15.90
2019-05-11T17:11:38.446Z,16.00
2019-05-11T17:14:08.286Z,16.00
2019-05-11T17:16:38.484Z,15.90
2019-05-11T17:19:08.152Z,15.90
2019-05-11T17:21:38.163Z,15.30
2019-05-11T17:24:06.872Z,15.70
2019-05-11T17:26:35.471Z,15.90
2019-05-11T17:29:03.885Z,15.60
2019-05-11T17:31:32.333Z,15.80
2019-05-11T17:34:00.769Z,15.70
2019-05-11T17:36:29.208Z,15.60
2019-05-11T17:38:58.277Z,15.70
2019-05-11T17:41:27.968Z,15.80
2019-05-11T17:43:58.359Z,15.70
2019-05-11T17:46:29.729Z,15.50
2019-05-11T17:48:58.156Z,15.30
2019-05-11T17:51:28.614Z,15.00
2019-05-11T17:53:56.821Z,14.80
2019-05-11T17:56:27.834Z,14.80
2019-05-11T17:58:55.622Z,15.10
2019-05-11T18:01:24.045Z,15.00
2019-05-11T18:03:52.494Z,14.90
2019-05-11T18:06:20.927Z,14.90
2019-05-11T18:08:49.357Z,15.10
2019-05-11T18:11:18.542Z,15.20
2019-05-11T18:13:48.234Z,15.20
2019-05-11T18:16:18.778Z,14.80
2019-05-11T18:18:48.380Z,14.50
2019-05-11T18:21:18.825Z,14.30
2019-05-11T18:23:48.024Z,14.30
2019-05-11T18:26:18.131Z,14.20
2019-05-11T18:28:48.193Z,14.20
2019-05-11T18:31:18.215Z,13.90
2019-05-11T18:33:48.741Z,13.80
2019-05-11T18:36:18.321Z,13.70
2019-05-11T18:38:48.762Z,13.50
2019-05-11T18:41:17.358Z,13.30
2019-05-11T18:43:48.174Z,13.40
2019-05-11T18:46:15.968Z,13.50
2019-05-11T18:48:44.399Z,13.30
2019-05-11T18:51:12.834Z,13.30
2019-05-11T18:53:41.273Z,13.10
2019-05-11T18:56:09.722Z,13.10
2019-05-11T18:58:38.503Z,13.00
2019-05-11T19:01:07.130Z,13.00
2019-05-11T19:03:35.555Z,13.00
2019-05-11T19:06:04.014Z,13.00
2019-05-11T19:08:32.457Z,12.90
2019-05-11T19:11:00.909Z,12.90
2019-05-11T19:13:29.653Z,12.80
2019-05-11T19:16:05.643Z,12.70
2019-05-11T19:18:34.145Z,12.50
2019-05-11T19:21:02.661Z,12.30
2019-05-11T19:23:31.137Z,12.20
2019-05-11T19:25:59.586Z,12.30
2019-05-11T19:28:28.288Z,12.20
2019-05-11T19:30:59.081Z,12.10
2019-05-11T19:33:27.831Z,12.00
2019-05-11T19:35:58.489Z,12.10
2019-05-11T19:38:28.048Z,12.20
2019-05-11T19:40:58.776Z,12.10
2019-05-11T19:43:27.751Z,12.00
2019-05-11T19:45:58.172Z,11.80
2019-05-11T19:48:27.986Z,11.70
2019-05-11T19:51:06.741Z,11.70
2019-05-11T19:53:28.219Z,11.60
2019-05-11T19:55:58.413Z,11.70
2019-05-11T19:58:28.937Z,11.70
2019-05-11T20:00:58.004Z,11.60
2019-05-11T20:03:28.522Z,11.50
2019-05-11T20:05:58.041Z,11.50
2019-05-11T20:08:29.074Z,11.40
2019-05-11T20:10:57.306Z,11.40
2019-05-11T20:13:25.748Z,11.40
2019-05-11T20:15:54.222Z,11.30
2019-05-11T20:18:22.657Z,11.40
2019-05-11T20:20:51.099Z,11.20
2019-05-11T20:23:19.548Z,11.10
2019-05-11T20:25:48.169Z,11.10
2019-05-11T20:28:18.259Z,11.00
2019-05-11T20:30:48.307Z,10.80
2019-05-11T20:33:18.941Z,10.90
2019-05-11T20:35:48.786Z,10.80
2019-05-11T20:38:18.794Z,10.50
2019-05-11T20:40:48.454Z,10.50
2019-05-11T20:43:18.574Z,10.60
2019-05-11T20:45:48.618Z,10.50
2019-05-11T20:48:18.541Z,10.50
2019-05-11T20:50:48.359Z,10.70
2019-05-11T20:53:18.080Z,10.30
2019-05-11T20:55:48.361Z,10.10
2019-05-11T20:58:18.776Z,10.10
2019-05-11T21:00:48.981Z,10.00
2019-05-11T21:03:17.144Z,10.00
2019-05-11T21:05:45.625Z,10.10
2019-05-11T21:08:14.037Z,10.10
2019-05-11T21:10:42.484Z,9.80
2019-05-11T21:13:10.916Z,9.90
2019-05-11T21:15:39.360Z,9.90
2019-05-11T21:18:08.025Z,9.70
2019-05-11T21:20:38.054Z,9.70
2019-05-11T21:23:08.168Z,9.70
2019-05-11T21:25:37.785Z,9.90
2019-05-11T21:28:08.565Z,9.70
2019-05-11T21:30:39.649Z,9.70
2019-05-11T21:33:08.678Z,9.60
2019-05-11T21:35:38.607Z,9.50
2019-05-11T21:38:07.180Z,9.30
2019-05-11T21:40:38.132Z,9.40
2019-05-11T21:43:08.799Z,9.30
2019-05-11T21:45:39.872Z,9.40
2019-05-11T21:48:07.452Z,9.10
2019-05-11T21:50:36.028Z,9.20
2019-05-11T21:53:04.452Z,9.20
2019-05-11T21:55:32.892Z,9.20
2019-05-11T21:58:01.350Z,9.00
2019-05-11T22:00:30.923Z,9.00
2019-05-11T22:02:59.686Z,9.10
2019-05-11T22:05:28.949Z,8.90
2019-05-11T22:07:58.309Z,9.00
2019-05-11T22:10:38.544Z,8.90
2019-05-11T22:13:06.682Z,8.80
2019-05-11T22:15:50.745Z,8.80
2019-05-11T22:18:30.587Z,8.70
2019-05-11T22:20:49.329Z,8.80
2019-05-11T22:23:17.773Z,8.70
2019-05-11T22:25:47.566Z,8.70
2019-05-11T22:28:17.631Z,8.50
2019-05-11T22:30:48.372Z,8.30
2019-05-11T22:33:17.718Z,8.20
2019-05-11T22:35:48.086Z,8.40
2019-05-11T22:38:16.710Z,8.20
2019-05-11T22:40:45.157Z,8.20
2019-05-11T22:43:13.593Z,8.40
2019-05-11T22:45:42.014Z,8.50
2019-05-11T22:48:10.456Z,8.40
2019-05-11T22:50:38.878Z,8.50
2019-05-11T22:53:08.706Z,8.50
2019-05-11T22:55:38.143Z,8.30
2019-05-11T22:58:08.537Z,8.20
2019-05-11T23:00:44.774Z,8.20
2019-05-11T23:03:13.509Z,8.20
2019-05-11T23:05:43.078Z,8.30
2019-05-11T23:08:11.592Z,8.10
2019-05-11T23:10:40.030Z,7.90
2019-05-11T23:13:11.209Z,7.80
2019-05-11T23:15:40.431Z,7.80
2019-05-11T23:18:08.878Z,7.70
2019-05-11T23:20:38.647Z,7.70
2019-05-11T23:23:08.704Z,7.60
2019-05-11T23:25:37.779Z,7.70
2019-05-11T23:28:06.330Z,7.70
2019-05-11T23:30:34.934Z,7.80
2019-05-11T23:33:03.366Z,7.90
2019-05-11T23:35:32.677Z,8.00
2019-05-11T23:38:01.142Z,8.00
2019-05-11T23:40:29.564Z,7.90
2019-05-11T23:42:58.056Z,7.80
2019-05-11T23:45:27.915Z,7.80
2019-05-11T23:47:58.816Z,7.70
2019-05-11T23:50:28.114Z,7.70
2019-05-11T23:53:06.176Z,7.80
2019-05-11T23:55:28.964Z,7.70
2019-05-11T23:57:58.038Z,7.70
